Time;durP1;ratioP1;P1;durP2;ratioP2;P2;SDS_P1;SDS_P2;PMS_P1;PMS_P2;Temp;Humidity;BMP_temperature;BMP_pressure;BME280_temperature;BME280_humidity;BME280_pressure;Samples;Min_cycle;Max_cycle;Signal;HPM_P1;HPM_P2
2022/08/31 00:05:14;;;;;;;0.40;0.38;;;21.80;58.40;;;;;;20497522;29;20035;-77
2022/08/31 00:15:17;;;;;;;0.30;0.20;;;21.80;58.30;;;;;;20486377;28;20046;-77
2022/08/31 00:25:17;;;;;;;0.28;0.20;;;21.80;58.20;;;;;;20478245;28;20386;-76
2022/08/31 00:35:18;;;;;;;1.02;0.47;;;21.80;58.10;;;;;;20494165;29;20046;-75
2022/08/31 00:45:18;;;;;;;0.50;0.30;;;21.80;58.10;;;;;;20493356;28;20042;-76
2022/08/31 00:55:33;;;;;;;0.67;0.30;;;21.80;58.10;;;;;;20476606;29;20134;-77
2022/08/31 01:05:34;;;;;;;0.57;0.50;;;21.80;58.00;;;;;;20491865;29;20035;-78
2022/08/31 01:15:35;;;;;;;0.20;0.20;;;21.80;58.00;;;;;;20508512;29;20042;-77
2022/08/31 01:25:36;;;;;;;0.40;0.35;;;21.80;58.00;;;;;;20899810;23;20145;-77
2022/08/31 01:35:39;;;;;;;0.40;0.30;;;21.80;58.00;;;;;;20560348;28;20415;-78
2022/08/31 01:45:40;;;;;;;1.60;0.85;;;21.80;58.00;;;;;;20543188;28;20138;-77
2022/08/31 01:55:41;;;;;;;0.88;0.30;;;21.80;58.10;;;;;;20573390;28;20066;-78
2022/08/31 02:05:42;;;;;;;0.35;0.30;;;21.80;58.10;;;;;;20540882;28;20074;-78
2022/08/31 02:15:43;;;;;;;0.70;0.50;;;21.80;58.10;;;;;;20587220;28;20524;-77
2022/08/31 02:25:43;;;;;;;0.55;0.28;;;21.70;58.00;;;;;;20569698;28;20305;-79
2022/08/31 02:35:45;;;;;;;0.52;0.30;;;21.70;58.00;;;;;;20538360;28;20038;-77
2022/08/31 02:45:46;;;;;;;0.47;0.30;;;21.70;58.00;;;;;;20553525;28;20086;-77
2022/08/31 02:55:53;;;;;;;0.75;0.40;;;21.70;58.10;;;;;;20540085;28;20031;-78
2022/08/31 03:05:54;;;;;;;0.70;0.65;;;21.70;58.00;;;;;;20567531;28;20112;-78
2022/08/31 03:15:55;;;;;;;0.28;0.15;;;21.70;58.10;;;;;;20569537;28;20035;-77
2022/08/31 03:25:55;;;;;;;0.20;0.20;;;21.60;58.00;;;;;;20551571;28;20473;-77
2022/08/31 03:35:56;;;;;;;0.30;0.20;;;21.70;58.00;;;;;;20551030;28;20035;-77
2022/08/31 03:45:57;;;;;;;0.60;0.35;;;21.70;57.90;;;;;;20583132;28;20301;-78
2022/08/31 03:56:02;;;;;;;1.05;0.45;;;21.60;57.80;;;;;;20548877;28;20126;-80
2022/08/31 04:06:11;;;;;;;0.50;0.40;;;21.60;57.80;;;;;;20552787;28;20039;-80
2022/08/31 04:16:31;;;;;;;0.80;0.33;;;21.60;57.70;;;;;;20566898;28;20039;-80
2022/08/31 04:26:52;;;;;;;0.35;0.30;;;21.60;57.60;;;;;;20565539;28;20078;-73
2022/08/31 04:36:52;;;;;;;0.50;0.40;;;21.60;57.50;;;;;;20541969;28;20129;-78
2022/08/31 04:46:54;;;;;;;2.00;0.47;;;21.50;57.30;;;;;;20556606;28;20133;-75
2022/08/31 04:56:55;;;;;;;0.70;0.30;;;21.50;57.10;;;;;;20556972;28;20031;-77
2022/08/31 05:07:02;;;;;;;0.80;0.47;;;21.50;56.90;;;;;;20587307;28;20039;-85
2022/08/31 05:17:05;;;;;;;0.65;0.40;;;21.50;56.50;;;;;;20540982;28;20034;-78
2022/08/31 05:27:06;;;;;;;1.17;0.30;;;21.50;56.40;;;;;;20550955;28;20061;-79
2022/08/31 05:37:06;;;;;;;0.95;0.30;;;21.50;56.20;;;;;;20569058;28;20117;-83
2022/08/31 05:47:08;;;;;;;0.93;0.17;;;21.50;56.20;;;;;;20539253;28;20049;-77
2022/08/31 05:57:08;;;;;;;0.80;0.40;;;21.40;56.10;;;;;;20499411;28;20397;-77
2022/08/31 06:07:10;;;;;;;0.25;0.25;;;21.40;56.00;;;;;;20526975;28;20085;-77
2022/08/31 06:17:16;;;;;;;0.90;0.38;;;21.40;55.90;;;;;;20506617;28;20030;-79
2022/08/31 06:27:17;;;;;;;0.77;0.47;;;21.40;55.90;;;;;;20538473;28;20035;-78
2022/08/31 06:37:18;;;;;;;0.60;0.45;;;21.40;56.00;;;;;;20483873;28;20650;-78
2022/08/31 06:47:29;;;;;;;1.33;0.73;;;21.40;55.90;;;;;;20534095;28;20073;-78
2022/08/31 06:57:30;;;;;;;0.47;0.30;;;21.40;56.00;;;;;;20544840;28;20039;-77
2022/08/31 07:07:50;;;;;;;0.15;0.13;;;21.40;56.00;;;;;;20548159;28;20085;-78
2022/08/31 07:17:51;;;;;;;0.65;0.40;;;21.40;56.00;;;;;;20529130;28;20556;-77
2022/08/31 07:27:54;;;;;;;0.47;0.40;;;21.40;56.10;;;;;;20534947;28;20035;-78
2022/08/31 07:48:14;;;;;;;0.65;0.20;;;21.40;56.10;;;;;;20558266;28;20074;-78
2022/08/31 07:58:46;;;;;;;1.35;0.40;;;21.40;56.20;;;;;;20492084;29;20110;-78
2022/08/31 08:08:47;;;;;;;0.65;0.40;;;21.40;56.20;;;;;;20516579;28;20051;-78
2022/08/31 08:19:07;;;;;;;3.00;0.38;;;21.40;56.30;;;;;;20543842;28;20105;-78
2022/08/31 08:29:08;;;;;;;1.85;0.30;;;21.40;56.30;;;;;;20519604;28;1028072;-78
2022/08/31 08:39:16;;;;;;;0.60;0.25;;;21.40;56.30;;;;;;20541042;28;20038;-78
2022/08/31 08:49:34;;;;;;;0.93;0.40;;;21.40;56.30;;;;;;20557498;28;20069;-77
2022/08/31 08:59:36;;;;;;;0.73;0.35;;;21.40;56.30;;;;;;20569349;28;20047;-78
2022/08/31 09:09:59;;;;;;;1.58;0.30;;;21.40;56.20;;;;;;20533239;28;20101;-78
2022/08/31 09:20:02;;;;;;;0.95;0.20;;;21.40;56.20;;;;;;20487425;28;20121;-77
2022/08/31 09:30:06;;;;;;;1.75;0.50;;;21.40;56.20;;;;;;20552664;28;20245;-77
2022/08/31 09:40:14;;;;;;;1.08;0.40;;;21.40;56.20;;;;;;20548748;28;20034;-78
2022/08/31 09:50:29;;;;;;;2.45;0.47;;;21.40;56.20;;;;;;20564474;28;20043;-81
2022/08/31 10:00:41;;;;;;;0.60;0.30;;;21.40;56.20;;;;;;20569373;28;20042;-78
2022/08/31 10:10:42;;;;;;;0.63;0.30;;;21.40;56.20;;;;;;20553593;28;20043;-80
2022/08/31 10:20:54;;;;;;;0.47;0.22;;;21.40;56.20;;;;;;20551070;28;20449;-79
2022/08/31 10:31:06;;;;;;;1.17;0.32;;;21.50;56.20;;;;;;20506831;28;20050;-81
2022/08/31 10:41:22;;;;;;;1.05;0.50;;;21.40;56.30;;;;;;20504076;28;20174;-77
2022/08/31 10:51:38;;;;;;;0.65;0.30;;;21.40;56.10;;;;;;20550748;28;20382;-73
2022/08/31 11:01:44;;;;;;;0.20;0.17;;;21.40;56.20;;;;;;20564234;28;20533;-76
2022/08/31 11:12:06;;;;;;;3.55;0.50;;;21.40;56.10;;;;;;20549240;28;20046;-81
2022/08/31 11:22:28;;;;;;;0.73;0.40;;;21.40;56.10;;;;;;20566415;28;20048;-82
2022/08/31 11:32:45;;;;;;;0.90;0.22;;;21.40;56.10;;;;;;20571326;28;20551;-85
2022/08/31 11:42:46;;;;;;;1.50;0.47;;;21.40;55.90;;;;;;20535032;28;20055;-76
2022/08/31 11:52:52;;;;;;;0.25;0.20;;;21.50;55.80;;;;;;20579962;28;20047;-77
2022/08/31 12:03:04;;;;;;;1.42;0.20;;;21.50;55.70;;;;;;20564020;28;20035;-82
2022/08/31 12:13:17;;;;;;;0.80;0.30;;;21.50;55.60;;;;;;20568358;28;20038;-80
2022/08/31 12:23:36;;;;;;;2.80;0.30;;;21.50;55.60;;;;;;20540928;28;20130;-77
2022/08/31 12:33:39;;;;;;;0.70;0.20;;;21.50;56.30;;;;;;20560201;28;20089;-75
2022/08/31 12:43:47;;;;;;;2.05;0.35;;;21.50;55.60;;;;;;20593033;28;20034;-74
2022/08/31 12:54:16;;;;;;;0.50;0.30;;;21.50;55.60;;;;;;20572209;28;20027;-75
2022/08/31 13:04:17;;;;;;;0.40;0.30;;;21.50;55.50;;;;;;20569930;28;20034;-76
2022/08/31 13:14:21;;;;;;;0.52;0.30;;;21.50;55.50;;;;;;20571771;28;20038;-76
2022/08/31 13:24:33;;;;;;;0.15;0.15;;;21.50;55.50;;;;;;20588112;28;20125;-76
2022/08/31 13:34:40;;;;;;;0.40;0.30;;;21.50;55.40;;;;;;20556961;28;20129;-77
2022/08/31 13:44:42;;;;;;;0.32;0.20;;;21.50;55.40;;;;;;20587196;28;20046;-77
2022/08/31 13:54:43;;;;;;;0.45;0.10;;;21.50;55.30;;;;;;20584702;28;20038;-77
2022/08/31 14:15:16;;;;;;;0.43;0.20;;;21.60;55.30;;;;;;20577154;28;20118;-78
2022/08/31 14:25:18;;;;;;;0.30;0.20;;;21.70;55.20;;;;;;20566224;28;20137;-76
2022/08/31 14:35:21;;;;;;;0.35;0.30;;;21.70;55.20;;;;;;20568461;28;20061;-77
2022/08/31 14:45:21;;;;;;;0.68;0.20;;;21.70;55.20;;;;;;20566157;28;20031;-79
2022/08/31 14:55:23;;;;;;;1.00;0.25;;;21.80;55.00;;;;;;20580674;28;20118;-80
2022/08/31 15:05:24;;;;;;;0.60;0.40;;;21.90;54.70;;;;;;20548912;28;20039;-74
2022/08/31 15:15:24;;;;;;;0.63;0.20;;;22.00;54.30;;;;;;20566151;28;20181;-77
2022/08/31 15:25:25;;;;;;;0.20;0.20;;;22.10;54.00;;;;;;20525661;28;20039;-76
2022/08/31 15:35:29;;;;;;;0.85;0.30;;;22.20;53.80;;;;;;20579606;28;20035;-78
2022/08/31 15:45:29;;;;;;;2.20;0.32;;;22.20;53.60;;;;;;20551310;28;20039;-76
2022/08/31 15:55:30;;;;;;;0.55;0.22;;;22.20;53.60;;;;;;20560937;28;20038;-74
2022/08/31 16:05:34;;;;;;;0.30;0.15;;;22.10;53.60;;;;;;20593380;28;20548;-78
2022/08/31 16:15:35;;;;;;;0.10;0.10;;;22.10;53.70;;;;;;20592316;28;20038;-76
2022/08/31 16:25:36;;;;;;;0.70;0.30;;;22.20;53.70;;;;;;20560206;28;20042;-79
2022/08/31 16:35:37;;;;;;;0.30;0.20;;;22.20;53.50;;;;;;20575863;28;20035;-77
2022/08/31 16:45:38;;;;;;;0.75;0.30;;;22.20;53.40;;;;;;20541778;28;20046;-77
2022/08/31 16:55:40;;;;;;;0.35;0.20;;;22.20;53.50;;;;;;20554587;28;20122;-76
2022/08/31 17:05:41;;;;;;;0.10;0.10;;;22.10;53.60;;;;;;20573458;28;20042;-77
2022/08/31 17:15:42;;;;;;;0.55;0.10;;;22.00;53.70;;;;;;20574668;28;20035;-75
2022/08/31 17:25:42;;;;;;;0.20;0.20;;;22.00;53.80;;;;;;20485031;28;20043;-77
2022/08/31 17:35:43;;;;;;;0.63;0.10;;;22.00;53.80;;;;;;20503507;28;20031;-74
2022/08/31 17:45:43;;;;;;;0.50;0.32;;;22.00;53.80;;;;;;20526671;28;20066;-77
2022/08/31 17:55:54;;;;;;;0.20;0.20;;;22.00;53.90;;;;;;20499497;28;20031;-74
2022/08/31 18:05:54;;;;;;;0.38;0.25;;;21.90;54.00;;;;;;20504681;28;20049;-75
2022/08/31 18:15:55;;;;;;;0.35;0.20;;;21.90;54.00;;;;;;20567732;28;20043;-74
2022/08/31 18:25:55;;;;;;;0.45;0.22;;;21.80;54.10;;;;;;20562867;28;20327;-74
2022/08/31 18:36:02;;;;;;;1.55;0.73;;;21.80;54.10;;;;;;20513049;28;20090;-81
2022/08/31 18:46:02;;;;;;;0.50;0.30;;;21.80;54.10;;;;;;20551482;28;20054;-80
2022/08/31 18:56:07;;;;;;;0.93;0.30;;;21.80;54.20;;;;;;20528204;28;20027;-78
2022/08/31 19:06:11;;;;;;;0.50;0.30;;;21.70;54.10;;;;;;20500049;28;20471;-78
2022/08/31 19:16:21;;;;;;;0.55;0.20;;;21.70;54.00;;;;;;20536730;28;20031;-79
2022/08/31 19:26:31;;;;;;;0.10;0.10;;;21.70;53.90;;;;;;20539301;28;20039;-79
2022/08/31 19:36:35;;;;;;;0.52;0.25;;;21.70;54.60;;;;;;20533157;28;20030;-78
2022/08/31 19:46:40;;;;;;;0.47;0.20;;;21.70;54.10;;;;;;20559613;28;20393;-81
2022/08/31 19:56:42;;;;;;;0.67;0.30;;;21.70;54.10;;;;;;20567856;28;20386;-80
2022/08/31 20:06:44;;;;;;;0.13;0.10;;;21.60;54.10;;;;;;20549006;28;20035;-80
2022/08/31 20:16:45;;;;;;;0.17;0.13;;;21.60;54.20;;;;;;20566952;28;20055;-77
2022/08/31 20:26:48;;;;;;;0.52;0.22;;;21.70;54.40;;;;;;20527008;28;20030;-78
2022/08/31 20:36:53;;;;;;;0.40;0.20;;;21.60;54.30;;;;;;20529957;28;20031;-78
2022/08/31 20:57:16;;;;;;;0.40;0.40;;;21.60;54.40;;;;;;20567437;28;20289;-78
2022/08/31 21:07:18;;;;;;;0.35;0.20;;;21.60;54.50;;;;;;20543703;28;20044;-77
2022/08/31 21:17:18;;;;;;;0.80;0.30;;;21.60;54.50;;;;;;20538737;28;20031;-78
2022/08/31 21:27:19;;;;;;;0.80;0.40;;;21.60;54.40;;;;;;20542298;28;20089;-78
2022/08/31 21:37:20;;;;;;;0.10;0.10;;;21.60;54.40;;;;;;20571837;28;20031;-79
2022/08/31 21:47:20;;;;;;;0.52;0.22;;;21.60;54.30;;;;;;20523185;28;20324;-77
2022/08/31 21:57:21;;;;;;;0.65;0.28;;;21.60;54.20;;;;;;20547188;28;20113;-79
2022/08/31 22:07:22;;;;;;;1.13;0.40;;;21.60;54.10;;;;;;20523088;28;20038;-78
2022/08/31 22:17:23;;;;;;;0.75;0.30;;;21.50;54.00;;;;;;20532942;28;20028;-79
2022/08/31 22:27:24;;;;;;;1.33;0.40;;;21.50;54.00;;;;;;20541598;28;20045;-78
2022/08/31 22:37:24;;;;;;;0.20;0.20;;;21.50;54.10;;;;;;20541706;28;20442;-78
2022/08/31 22:47:25;;;;;;;0.30;0.20;;;21.50;54.10;;;;;;20558942;28;20398;-79
2022/08/31 22:57:25;;;;;;;0.43;0.20;;;21.50;54.10;;;;;;20558530;28;20034;-78
2022/08/31 23:07:26;;;;;;;0.20;0.20;;;21.50;54.20;;;;;;20546718;28;20133;-78
2022/08/31 23:17:26;;;;;;;0.28;0.22;;;21.50;54.20;;;;;;20564448;28;20470;-78
2022/08/31 23:27:27;;;;;;;0.65;0.30;;;21.50;54.30;;;;;;20523675;28;20397;-79
2022/08/31 23:37:29;;;;;;;0.63;0.35;;;21.50;54.30;;;;;;20556218;28;20071;-79
2022/08/31 23:47:30;;;;;;;0.67;0.27;;;21.50;54.30;;;;;;20557455;28;20058;-78
2022/08/31 23:57:30;;;;;;;0.38;0.28;;;21.40;54.30;;;;;;20511724;28;20282;-79
